Tuesday, February 20, 2018, 10:41 AM EST
Back to Local

KWWD, Wildwood, Cape May County Airport

Location: Villas, NJ, United States Lat: 39.017
Local Time: 10:41 AM EST (15:41 GMT) Lon: -74.917
Time Zone: US/Eastern Elev: 22 ft

Show me the last for .
Show Decoded

2018-02-20 10:24 METAR KWWD 201524Z AUTO 22015G23KT 10SM SCT007 18/15 A3040 RMK AO2 =
2018-02-20 10:14 METAR KWWD 201514Z AUTO 22015KT 10SM BKN007 18/15 A3040 RMK AO2 =
2018-02-20 09:55 METAR KWWD 201455Z AUTO 22016G20KT 10SM SCT007 17/14 A3040 RMK AO2 SLP297
                 T01670144 51002 =
2018-02-20 08:55 METAR KWWD 201355Z AUTO 23015G23KT 10SM BKN006 OVC011 16/14 A3040 RMK AO2 SLP297
                 T01560144 =
2018-02-20 08:44 METAR KWWD 201344Z AUTO 21014G23KT 10SM OVC006 16/15 A3040 RMK AO2 CIG 003V009 =
2018-02-20 08:27 METAR KWWD 201327Z AUTO 22013G20KT 10SM OVC004 15/14 A3039 RMK AO2 CIG 002V006 =
2018-02-20 08:19 METAR KWWD 201319Z AUTO 22011KT 5SM BR OVC002 14/14 A3040 RMK AO2 CIG 002V007 =
2018-02-20 08:05 METAR KWWD 201305Z AUTO 20010KT 2 1/2SM BR OVC002 13/13 A3040 RMK AO2 =
2018-02-20 07:55 METAR KWWD 201255Z AUTO 20009KT 3SM BR BKN002 OVC007 13/13 A3040 RMK AO2 SLP298
                 T01280128 =
2018-02-20 06:55 METAR KWWD 201155Z AUTO 22010KT 4SM BR OVC002 13/13 A3039 RMK AO2 SLP294
                 T01330128 10139 20100 53014 =
2018-02-20 05:55 METAR KWWD 201055Z AUTO 21012KT 4SM BR OVC002 13/13 A3037 RMK AO2 SLP285
                 T01330128 =
2018-02-20 05:49 METAR KWWD 201049Z AUTO 21011KT 3SM BR OVC002 13/13 A3036 RMK AO2 =
2018-02-20 05:40 METAR KWWD 201040Z AUTO 21011KT 1 1/2SM BR OVC002 13/13 A3036 RMK AO2 =
2018-02-20 04:55 METAR KWWD 200955Z AUTO 20008KT 1SM BR OVC002 12/12 A3036 RMK AO2 SLP281
                 T01220117 =
2018-02-20 04:45 METAR KWWD 200945Z AUTO 20008KT 1SM BR OVC002 12/12 A3036 RMK AO2 =
2018-02-20 04:35 METAR KWWD 200935Z AUTO 20007KT 3/4SM BR OVC002 12/11 A3036 RMK AO2 =
2018-02-20 04:19 METAR KWWD 200919Z AUTO 20006KT 1SM BR OVC002 12/11 A3036 RMK AO2 =
2018-02-20 04:07 METAR KWWD 200907Z AUTO 20006KT 1 1/2SM BR OVC002 11/11 A3035 RMK AO2 =
2018-02-20 03:55 METAR KWWD 200855Z AUTO 19005KT 2 1/2SM BR OVC002 11/11 A3035 RMK AO2 SLP281
                 T01110106 58003 =
2018-02-20 03:39 METAR KWWD 200839Z AUTO 19005KT 3SM BR OVC002 11/11 A3035 RMK AO2 =
2018-02-20 03:30 METAR KWWD 200830Z AUTO 19004KT 4SM BR OVC004 11/10 A3036 RMK AO2 CIG 002V006 =
2018-02-20 02:55 METAR KWWD 200755Z AUTO 19004KT 5SM BR SCT003 OVC008 11/11 A3036 RMK AO2 SLP282
                 T01110106 =
2018-02-20 02:46 METAR KWWD 200746Z AUTO 19004KT 6SM BR FEW003 OVC008 11/11 A3036 RMK AO2 =
2018-02-20 02:10 METAR KWWD 200710Z AUTO 20007KT 6SM BR BKN012 OVC018 12/11 A3037 RMK AO2 =
2018-02-20 01:55 METAR KWWD 200655Z AUTO 20007KT 7SM FEW004 OVC018 12/11 A3036 RMK AO2 SLP284
                 T01170111 =
2018-02-20 01:51 METAR KWWD 200651Z AUTO 20007KT 7SM SCT004 OVC020 12/11 A3036 RMK AO2 =
2018-02-20 00:55 METAR KWWD 200555Z AUTO 19005KT 6SM BR OVC004 10/09 A3036 RMK AO2 SLP283
                 T01000094 10111 20089 58006 =
2018-02-20 00:10 METAR KWWD 200510Z AUTO 17005KT 7SM BKN004 OVC010 09/08 A3037 RMK AO2 =
2018-02-19 23:55 METAR KWWD 200455Z AUTO 18006KT 7SM SCT004 OVC012 09/08 A3037 RMK AO2 SLP288
                 T00890083 401111028 =
2018-02-19 23:52 METAR KWWD 200452Z AUTO 17006KT 7SM SCT004 OVC012 09/08 A3037 RMK AO2 401111028
                 =
2018-02-19 23:32 METAR KWWD 200432Z AUTO 19005KT 8SM BKN004 OVC014 09/09 A3038 RMK AO2 CIG
                 003V006 =
2018-02-19 22:55 METAR KWWD 200355Z AUTO 19007KT 9SM OVC006 10/09 A3038 RMK AO2 SLP289 T01000089
                 =
2018-02-19 22:24 METAR KWWD 200324Z AUTO 20008KT 10SM OVC004 09/09 A3037 RMK AO2 =
2018-02-19 21:55 METAR KWWD 200255Z AUTO 19010KT 10SM OVC006 10/09 A3037 RMK AO2 SLP288 T01000089
                 50000 =
2018-02-19 20:55 METAR KWWD 200155Z AUTO 19011KT 10SM OVC006 11/10 A3038 RMK AO2 SLP289 T01110100
                 =
2018-02-19 20:23 METAR KWWD 200123Z AUTO 18013KT 10SM OVC006 11/10 A3037 RMK AO2 CIG 004V008 =
2018-02-19 19:55 METAR KWWD 200055Z AUTO 18013KT 9SM OVC004 11/10 A3037 RMK AO2 CIG 004V007
                 SLP288 T01110100 =
2018-02-19 19:53 METAR KWWD 200053Z AUTO 18015KT 8SM OVC004 11/10 A3037 RMK AO2 CIG 004V007 =
2018-02-19 19:42 METAR KWWD 200042Z AUTO 18015G19KT 9SM BKN006 OVC010 11/09 A3037 RMK AO2 CIG
                 004V009 =
2018-02-19 18:55 METAR KWWD 192355Z AUTO 18013G19KT 10SM OVC012 11/09 A3038 RMK AO2 SLP289 60000
                 T01060089 10111 20094 58003 =
2018-02-19 18:26 METAR KWWD 192326Z AUTO 18012KT 10SM OVC014 11/09 A3038 RMK AO2 =
2018-02-19 18:05 METAR KWWD 192305Z AUTO 18008KT 10SM OVC016 11/09 A3038 RMK AO2 =
2018-02-19 17:55 METAR KWWD 192255Z AUTO 18009KT 10SM OVC014 10/09 A3038 RMK AO2 SLP290 T01000089
                 =
2018-02-19 17:32 METAR KWWD 192232Z AUTO 18005KT 10SM BKN014 OVC020 10/08 A3040 RMK AO2 =
2018-02-19 16:55 METAR KWWD 192155Z AUTO 18007KT 10SM OVC026 11/08 A3039 RMK AO2 SLP295 T01060083
                 =
2018-02-19 16:25 METAR KWWD 192125Z AUTO 17008KT 10SM OVC028 10/08 A3039 RMK AO2 =
2018-02-19 15:55 METAR KWWD 192055Z AUTO 17010KT 10SM OVC032 11/08 A3039 RMK AO2 SLP292 60000
                 T01060083 56021 =
2018-02-19 14:55 METAR KWWD 191955Z AUTO 16011KT 10SM OVC036 10/08 A3040 RMK AO2 SLP296 T01000078
                 =
2018-02-19 13:55 METAR KWWD 191855Z AUTO 17009KT 10SM OVC038 11/08 A3042 RMK AO2 RAB00E24 SLP302
                 P0000 T01060078 =
2018-02-19 12:55 METAR KWWD 191755Z AUTO 18008KT 10SM OVC040 10/07 A3045 RMK AO2 SLP313 T01000067
                 10111 20011 58020 =
2018-02-19 11:55 METAR KWWD 191655Z AUTO 17009KT 10SM OVC046 11/06 A3048 RMK AO2 SLP324 T01060061
                 =
2018-02-19 10:55 METAR KWWD 191555Z AUTO 15010KT 10SM BKN050 11/06 A3050 RMK AO2 SLP330 T01060056
                 =

Support USWX by starting your Amazon purchase here.